Startpagina
METAR-TAF:

METAR-TAF

Vliegvelden :

Internationale luchthaven Juan Santamaría

San José, Costa Rica

breedte: 10-00N, lengte: 084-13W, hoogte: 920 m

Actueel weer

Dit bericht is 1 uur en het 4 minuten geleden gemaakt, om 23:00 UTC
Wind 11 kt uit het oosten
Temperatuur 27°C
Vochtigheid 34%
Druk 1015 hPa
Zicht 10 km of meer
geen wolken onder 1500 m en geen cumulonimbus

METAR: MROC 232300Z 08011KT CAVOK 27/10 A2998 NOSIG

Tijdstip: 18:04 (00:04 UTC)

Verwachting

Dit bericht is 1 uur en het 4 minuten geleden gemaakt, om 23:00 UTC
Verwachting geldig van 24 om 00 UTC tot 24 om 24 UTC
Wind 12 kt uit het oosten
Zicht 10 km of meer
Weinig wolken op 4000 ft
Tijdelijke
van 24 om 20 UTC tot 24 om 24 UTC
Wind 8 kt uit het westzuidwesten

TAF: MROC 232300Z 2400/2424 09012KT 9999 FEW040 TX31/2419Z TN20/2410Z TEMPO 2420/2424 25008KT

Waarnemingen en weersverwachtingen van meer dan 4000 vliegvelden (METAR en TAF).

De beschikbare stations zijn de gele en rode punten op de kaart.

Ga met uw muis naar het station om de naam te zien.

Klik dan om waarnemingen en weersverwachtingen te zien.

kaart wijzigen: klik op de groene knoppen met een zwart kruis om in te zoomen, op de groene knop met een streepje om uit te zoomen of op de groene pijlen voor aangrenzende kaarten.


METAR-TAF: